sensor_id;sensor_type;location;lat;lon;timestamp;P1;durP1;ratioP1;P2;durP2;ratioP2
7029;SDS011;3556;53.500;10.176;2024-03-23T00:55:11;37.93;;;4.40;;
7029;SDS011;3556;53.500;10.176;2024-03-23T00:57:37;25.63;;;3.93;;
7029;SDS011;3556;53.500;10.176;2024-03-23T01:00:03;26.30;;;4.30;;
7029;SDS011;3556;53.500;10.176;2024-03-23T01:02:31;27.40;;;4.80;;
7029;SDS011;3556;53.500;10.176;2024-03-23T01:04:57;37.73;;;5.37;;
7029;SDS011;3556;53.500;10.176;2024-03-23T01:07:23;32.37;;;4.40;;
7029;SDS011;3556;53.500;10.176;2024-03-23T01:09:48;33.47;;;4.70;;
7029;SDS011;3556;53.500;10.176;2024-03-23T01:12:14;42.77;;;4.23;;
7029;SDS011;3556;53.500;10.176;2024-03-23T01:14:39;31.97;;;5.10;;
7029;SDS011;3556;53.500;10.176;2024-03-23T01:17:05;37.70;;;4.80;;
7029;SDS011;3556;53.500;10.176;2024-03-23T01:19:31;36.27;;;4.43;;
7029;SDS011;3556;53.500;10.176;2024-03-23T01:21:56;27.90;;;4.50;;
7029;SDS011;3556;53.500;10.176;2024-03-23T01:24:22;36.80;;;4.30;;
7029;SDS011;3556;53.500;10.176;2024-03-23T01:26:47;32.53;;;4.17;;
7029;SDS011;3556;53.500;10.176;2024-03-23T01:29:13;21.33;;;4.17;;
7029;SDS011;3556;53.500;10.176;2024-03-23T01:31:39;35.83;;;5.27;;
7029;SDS011;3556;53.500;10.176;2024-03-23T01:34:04;27.77;;;4.40;;
7029;SDS011;3556;53.500;10.176;2024-03-23T01:36:30;32.80;;;4.50;;
7029;SDS011;3556;53.500;10.176;2024-03-23T01:38:55;29.33;;;4.27;;
7029;SDS011;3556;53.500;10.176;2024-03-23T01:41:21;35.57;;;4.90;;
7029;SDS011;3556;53.500;10.176;2024-03-23T01:43:48;30.90;;;4.80;;
7029;SDS011;3556;53.500;10.176;2024-03-23T01:46:14;37.20;;;4.60;;
7029;SDS011;3556;53.500;10.176;2024-03-23T01:48:40;40.20;;;5.07;;
7029;SDS011;3556;53.500;10.176;2024-03-23T01:51:05;33.17;;;5.03;;
7029;SDS011;3556;53.500;10.176;2024-03-23T01:53:31;34.37;;;4.73;;
7029;SDS011;3556;53.500;10.176;2024-03-23T01:55:57;34.17;;;4.50;;
7029;SDS011;3556;53.500;10.176;2024-03-23T01:58:23;35.37;;;4.53;;
7029;SDS011;3556;53.500;10.176;2024-03-23T02:00:48;43.53;;;5.83;;
7029;SDS011;3556;53.500;10.176;2024-03-23T02:03:26;29.77;;;4.43;;
7029;SDS011;3556;53.500;10.176;2024-03-23T02:05:55;29.47;;;4.20;;
7029;SDS011;3556;53.500;10.176;2024-03-23T02:08:21;45.67;;;4.60;;
7029;SDS011;3556;53.500;10.176;2024-03-23T02:10:49;24.10;;;4.27;;
7029;SDS011;3556;53.500;10.176;2024-03-23T02:13:15;29.60;;;4.73;;
7029;SDS011;3556;53.500;10.176;2024-03-23T02:15:42;37.37;;;5.23;;
7029;SDS011;3556;53.500;10.176;2024-03-23T02:18:08;45.97;;;4.50;;
7029;SDS011;3556;53.500;10.176;2024-03-23T02:20:34;40.20;;;4.40;;
7029;SDS011;3556;53.500;10.176;2024-03-23T02:23:00;38.03;;;5.90;;
7029;SDS011;3556;53.500;10.176;2024-03-23T02:25:26;23.60;;;3.93;;
7029;SDS011;3556;53.500;10.176;2024-03-23T02:27:51;28.53;;;4.73;;
7029;SDS011;3556;53.500;10.176;2024-03-23T02:30:19;27.97;;;4.67;;
7029;SDS011;3556;53.500;10.176;2024-03-23T02:32:45;26.83;;;4.50;;
7029;SDS011;3556;53.500;10.176;2024-03-23T02:35:11;36.70;;;5.27;;
7029;SDS011;3556;53.500;10.176;2024-03-23T02:37:36;27.97;;;4.90;;
7029;SDS011;3556;53.500;10.176;2024-03-23T02:40:02;22.53;;;3.80;;
7029;SDS011;3556;53.500;10.176;2024-03-23T02:42:28;36.47;;;4.77;;
7029;SDS011;3556;53.500;10.176;2024-03-23T02:44:54;29.00;;;5.10;;
7029;SDS011;3556;53.500;10.176;2024-03-23T02:47:19;25.60;;;4.00;;
7029;SDS011;3556;53.500;10.176;2024-03-23T02:49:45;20.80;;;4.10;;
7029;SDS011;3556;53.500;10.176;2024-03-23T02:52:11;22.17;;;3.90;;
7029;SDS011;3556;53.500;10.176;2024-03-23T02:54:36;23.30;;;4.20;;
7029;SDS011;3556;53.500;10.176;2024-03-23T02:57:02;36.47;;;5.10;;
7029;SDS011;3556;53.500;10.176;2024-03-23T02:59:27;35.40;;;4.90;;
7029;SDS011;3556;53.500;10.176;2024-03-23T03:01:53;22.03;;;3.40;;
7029;SDS011;3556;53.500;10.176;2024-03-23T03:04:19;35.27;;;4.03;;
7029;SDS011;3556;53.500;10.176;2024-03-23T03:06:46;29.10;;;5.27;;
7029;SDS011;3556;53.500;10.176;2024-03-23T03:09:12;22.60;;;4.13;;
7029;SDS011;3556;53.500;10.176;2024-03-23T03:11:38;18.00;;;4.13;;
7029;SDS011;3556;53.500;10.176;2024-03-23T03:14:03;24.57;;;3.73;;
7029;SDS011;3556;53.500;10.176;2024-03-23T03:16:29;20.03;;;4.27;;
7029;SDS011;3556;53.500;10.176;2024-03-23T03:18:55;22.70;;;4.20;;
7029;SDS011;3556;53.500;10.176;2024-03-23T03:21:20;21.10;;;3.70;;
7029;SDS011;3556;53.500;10.176;2024-03-23T03:23:46;32.40;;;4.70;;
7029;SDS011;3556;53.500;10.176;2024-03-23T03:26:15;26.50;;;3.77;;
7029;SDS011;3556;53.500;10.176;2024-03-23T03:28:43;21.80;;;3.67;;
7029;SDS011;3556;53.500;10.176;2024-03-23T03:31:13;28.30;;;4.00;;
7029;SDS011;3556;53.500;10.176;2024-03-23T03:33:44;18.80;;;4.17;;
7029;SDS011;3556;53.500;10.176;2024-03-23T03:36:10;33.93;;;4.87;;
7029;SDS011;3556;53.500;10.176;2024-03-23T03:38:36;20.27;;;3.67;;
7029;SDS011;3556;53.500;10.176;2024-03-23T03:41:02;21.47;;;3.90;;
7029;SDS011;3556;53.500;10.176;2024-03-23T03:43:27;24.43;;;3.87;;
7029;SDS011;3556;53.500;10.176;2024-03-23T03:45:53;30.37;;;4.50;;
7029;SDS011;3556;53.500;10.176;2024-03-23T03:48:20;28.00;;;3.77;;
7029;SDS011;3556;53.500;10.176;2024-03-23T03:50:45;27.63;;;5.10;;
7029;SDS011;3556;53.500;10.176;2024-03-23T03:53:11;33.77;;;4.60;;
7029;SDS011;3556;53.500;10.176;2024-03-23T03:55:37;19.80;;;3.50;;
7029;SDS011;3556;53.500;10.176;2024-03-23T03:58:02;29.30;;;3.73;;
7029;SDS011;3556;53.500;10.176;2024-03-23T04:00:29;23.30;;;3.83;;
7029;SDS011;3556;53.500;10.176;2024-03-23T04:02:55;33.43;;;3.60;;
7029;SDS011;3556;53.500;10.176;2024-03-23T04:05:21;20.90;;;4.07;;
7029;SDS011;3556;53.500;10.176;2024-03-23T04:07:47;19.23;;;4.40;;
7029;SDS011;3556;53.500;10.176;2024-03-23T04:10:13;19.67;;;4.00;;
7029;SDS011;3556;53.500;10.176;2024-03-23T04:12:39;19.60;;;3.47;;
7029;SDS011;3556;53.500;10.176;2024-03-23T04:15:05;21.90;;;4.30;;
7029;SDS011;3556;53.500;10.176;2024-03-23T04:17:31;35.37;;;4.70;;
7029;SDS011;3556;53.500;10.176;2024-03-23T04:19:58;23.47;;;4.00;;
7029;SDS011;3556;53.500;10.176;2024-03-23T04:22:24;30.70;;;4.17;;
7029;SDS011;3556;53.500;10.176;2024-03-23T04:24:51;20.00;;;3.80;;
7029;SDS011;3556;53.500;10.176;2024-03-23T04:27:32;28.37;;;3.90;;
7029;SDS011;3556;53.500;10.176;2024-03-23T04:29:58;22.20;;;4.10;;
7029;SDS011;3556;53.500;10.176;2024-03-23T04:32:26;21.80;;;3.30;;
7029;SDS011;3556;53.500;10.176;2024-03-23T04:34:52;21.60;;;3.70;;
7029;SDS011;3556;53.500;10.176;2024-03-23T04:37:18;24.87;;;3.93;;
7029;SDS011;3556;53.500;10.176;2024-03-23T04:39:44;12.90;;;3.13;;
7029;SDS011;3556;53.500;10.176;2024-03-23T04:42:10;24.80;;;3.47;;
7029;SDS011;3556;53.500;10.176;2024-03-23T04:44:37;30.57;;;4.40;;
7029;SDS011;3556;53.500;10.176;2024-03-23T04:47:02;31.70;;;4.73;;
7029;SDS011;3556;53.500;10.176;2024-03-23T04:49:28;21.80;;;3.53;;
7029;SDS011;3556;53.500;10.176;2024-03-23T04:51:54;35.47;;;3.90;;
7029;SDS011;3556;53.500;10.176;2024-03-23T04:54:19;21.00;;;3.50;;
7029;SDS011;3556;53.500;10.176;2024-03-23T04:56:45;27.60;;;3.60;;
7029;SDS011;3556;53.500;10.176;2024-03-23T04:59:11;15.37;;;3.97;;
7029;SDS011;3556;53.500;10.176;2024-03-23T05:01:37;30.60;;;4.57;;
7029;SDS011;3556;53.500;10.176;2024-03-23T05:04:05;26.90;;;4.27;;
7029;SDS011;3556;53.500;10.176;2024-03-23T05:06:30;24.73;;;4.40;;
7029;SDS011;3556;53.500;10.176;2024-03-23T05:08:56;22.47;;;4.33;;
7029;SDS011;3556;53.500;10.176;2024-03-23T05:11:22;15.50;;;3.30;;
7029;SDS011;3556;53.500;10.176;2024-03-23T05:13:47;23.23;;;3.53;;
7029;SDS011;3556;53.500;10.176;2024-03-23T05:16:13;19.07;;;3.70;;
7029;SDS011;3556;53.500;10.176;2024-03-23T05:18:38;16.90;;;3.40;;
7029;SDS011;3556;53.500;10.176;2024-03-23T05:21:04;23.20;;;3.57;;
7029;SDS011;3556;53.500;10.176;2024-03-23T05:23:30;18.40;;;3.70;;
7029;SDS011;3556;53.500;10.176;2024-03-23T05:25:55;20.57;;;3.40;;
7029;SDS011;3556;53.500;10.176;2024-03-23T05:28:21;23.83;;;3.53;;
7029;SDS011;3556;53.500;10.176;2024-03-23T05:30:53;19.73;;;3.70;;
7029;SDS011;3556;53.500;10.176;2024-03-23T05:33:20;23.30;;;3.90;;
7029;SDS011;3556;53.500;10.176;2024-03-23T05:35:46;24.80;;;4.03;;
7029;SDS011;3556;53.500;10.176;2024-03-23T05:38:13;20.40;;;3.77;;
7029;SDS011;3556;53.500;10.176;2024-03-23T05:40:39;24.10;;;3.87;;
7029;SDS011;3556;53.500;10.176;2024-03-23T05:43:08;24.67;;;4.00;;
7029;SDS011;3556;53.500;10.176;2024-03-23T05:45:34;19.90;;;3.67;;
7029;SDS011;3556;53.500;10.176;2024-03-23T05:47:59;21.10;;;4.40;;
7029;SDS011;3556;53.500;10.176;2024-03-23T05:50:25;15.07;;;3.87;;
7029;SDS011;3556;53.500;10.176;2024-03-23T05:52:51;27.77;;;4.10;;
7029;SDS011;3556;53.500;10.176;2024-03-23T05:55:16;22.77;;;3.97;;
7029;SDS011;3556;53.500;10.176;2024-03-23T05:57:42;20.40;;;3.97;;
7029;SDS011;3556;53.500;10.176;2024-03-23T06:00:08;28.43;;;4.57;;
7029;SDS011;3556;53.500;10.176;2024-03-23T06:02:44;16.67;;;3.60;;
7029;SDS011;3556;53.500;10.176;2024-03-23T06:05:12;25.53;;;4.00;;
7029;SDS011;3556;53.500;10.176;2024-03-23T06:07:38;25.50;;;4.70;;
7029;SDS011;3556;53.500;10.176;2024-03-23T06:10:04;18.93;;;3.80;;
7029;SDS011;3556;53.500;10.176;2024-03-23T06:12:31;21.57;;;3.87;;
7029;SDS011;3556;53.500;10.176;2024-03-23T06:14:57;21.10;;;4.20;;
7029;SDS011;3556;53.500;10.176;2024-03-23T06:17:22;16.83;;;4.07;;
7029;SDS011;3556;53.500;10.176;2024-03-23T06:19:48;21.80;;;3.80;;
7029;SDS011;3556;53.500;10.176;2024-03-23T06:22:14;18.63;;;3.67;;
7029;SDS011;3556;53.500;10.176;2024-03-23T06:24:40;23.43;;;4.00;;
7029;SDS011;3556;53.500;10.176;2024-03-23T06:27:05;43.73;;;4.60;;
7029;SDS011;3556;53.500;10.176;2024-03-23T06:29:31;24.70;;;4.20;;
7029;SDS011;3556;53.500;10.176;2024-03-23T06:31:57;26.50;;;4.60;;
7029;SDS011;3556;53.500;10.176;2024-03-23T06:34:23;19.13;;;4.70;;
7029;SDS011;3556;53.500;10.176;2024-03-23T06:36:49;42.00;;;5.10;;
7029;SDS011;3556;53.500;10.176;2024-03-23T06:39:15;31.70;;;4.40;;
7029;SDS011;3556;53.500;10.176;2024-03-23T06:41:53;22.47;;;4.33;;
7029;SDS011;3556;53.500;10.176;2024-03-23T06:44:20;29.37;;;4.23;;
7029;SDS011;3556;53.500;10.176;2024-03-23T06:46:46;36.23;;;5.10;;
7029;SDS011;3556;53.500;10.176;2024-03-23T06:49:14;36.07;;;5.30;;
7029;SDS011;3556;53.500;10.176;2024-03-23T06:51:43;33.93;;;5.37;;
7029;SDS011;3556;53.500;10.176;2024-03-23T06:54:10;41.80;;;4.63;;
7029;SDS011;3556;53.500;10.176;2024-03-23T06:56:35;38.57;;;6.80;;
7029;SDS011;3556;53.500;10.176;2024-03-23T06:59:01;31.67;;;5.63;;
7029;SDS011;3556;53.500;10.176;2024-03-23T07:01:27;41.87;;;6.30;;
7029;SDS011;3556;53.500;10.176;2024-03-23T07:03:53;40.60;;;5.90;;
7029;SDS011;3556;53.500;10.176;2024-03-23T07:06:19;39.37;;;5.00;;
7029;SDS011;3556;53.500;10.176;2024-03-23T07:08:45;28.20;;;5.00;;
7029;SDS011;3556;53.500;10.176;2024-03-23T07:11:11;35.03;;;5.07;;
7029;SDS011;3556;53.500;10.176;2024-03-23T07:13:36;30.83;;;4.80;;
7029;SDS011;3556;53.500;10.176;2024-03-23T07:16:02;36.43;;;4.30;;
7029;SDS011;3556;53.500;10.176;2024-03-23T07:18:28;26.73;;;3.47;;
7029;SDS011;3556;53.500;10.176;2024-03-23T07:20:56;23.57;;;3.93;;
7029;SDS011;3556;53.500;10.176;2024-03-23T07:23:23;18.70;;;4.10;;
7029;SDS011;3556;53.500;10.176;2024-03-23T07:25:56;31.73;;;5.40;;
7029;SDS011;3556;53.500;10.176;2024-03-23T07:28:25;24.50;;;4.13;;
7029;SDS011;3556;53.500;10.176;2024-03-23T07:31:07;23.73;;;3.77;;
7029;SDS011;3556;53.500;10.176;2024-03-23T07:33:42;30.33;;;4.30;;
7029;SDS011;3556;53.500;10.176;2024-03-23T07:36:09;19.63;;;3.97;;
7029;SDS011;3556;53.500;10.176;2024-03-23T07:38:35;14.90;;;3.47;;
7029;SDS011;3556;53.500;10.176;2024-03-23T07:41:07;26.57;;;4.97;;
7029;SDS011;3556;53.500;10.176;2024-03-23T07:43:34;22.17;;;3.60;;
7029;SDS011;3556;53.500;10.176;2024-03-23T07:46:00;20.47;;;3.43;;
7029;SDS011;3556;53.500;10.176;2024-03-23T07:48:26;25.57;;;3.77;;
7029;SDS011;3556;53.500;10.176;2024-03-23T07:51:02;17.27;;;3.90;;
7029;SDS011;3556;53.500;10.176;2024-03-23T07:53:30;27.97;;;3.93;;
7029;SDS011;3556;53.500;10.176;2024-03-23T07:55:57;22.73;;;3.90;;
7029;SDS011;3556;53.500;10.176;2024-03-23T07:58:24;29.40;;;3.80;;
7029;SDS011;3556;53.500;10.176;2024-03-23T08:00:51;19.40;;;3.53;;
7029;SDS011;3556;53.500;10.176;2024-03-23T08:03:17;16.17;;;3.13;;
7029;SDS011;3556;53.500;10.176;2024-03-23T08:05:43;21.90;;;3.73;;
7029;SDS011;3556;53.500;10.176;2024-03-23T08:08:08;20.30;;;3.27;;
7029;SDS011;3556;53.500;10.176;2024-03-23T08:10:34;16.13;;;3.87;;
7029;SDS011;3556;53.500;10.176;2024-03-23T08:12:59;15.30;;;2.90;;
7029;SDS011;3556;53.500;10.176;2024-03-23T08:15:25;22.60;;;4.10;;
7029;SDS011;3556;53.500;10.176;2024-03-23T08:17:51;37.83;;;4.40;;
7029;SDS011;3556;53.500;10.176;2024-03-23T08:20:16;21.83;;;3.80;;
7029;SDS011;3556;53.500;10.176;2024-03-23T08:22:42;26.70;;;3.80;;
7029;SDS011;3556;53.500;10.176;2024-03-23T08:25:07;21.03;;;3.70;;
7029;SDS011;3556;53.500;10.176;2024-03-23T08:27:33;31.60;;;3.60;;
7029;SDS011;3556;53.500;10.176;2024-03-23T08:29:59;22.40;;;3.83;;
7029;SDS011;3556;53.500;10.176;2024-03-23T08:32:24;17.30;;;3.60;;
7029;SDS011;3556;53.500;10.176;2024-03-23T08:34:50;23.50;;;3.80;;
7029;SDS011;3556;53.500;10.176;2024-03-23T08:37:15;22.43;;;3.53;;
7029;SDS011;3556;53.500;10.176;2024-03-23T08:39:43;26.47;;;3.80;;
7029;SDS011;3556;53.500;10.176;2024-03-23T08:42:08;21.07;;;3.57;;
7029;SDS011;3556;53.500;10.176;2024-03-23T08:44:34;28.63;;;4.20;;
7029;SDS011;3556;53.500;10.176;2024-03-23T08:47:00;14.27;;;2.70;;
7029;SDS011;3556;53.500;10.176;2024-03-23T08:49:26;25.17;;;4.37;;
7029;SDS011;3556;53.500;10.176;2024-03-23T08:51:52;15.00;;;2.97;;
7029;SDS011;3556;53.500;10.176;2024-03-23T08:54:19;14.77;;;3.60;;
7029;SDS011;3556;53.500;10.176;2024-03-23T08:56:45;19.73;;;3.90;;
7029;SDS011;3556;53.500;10.176;2024-03-23T08:59:11;16.20;;;3.50;;
7029;SDS011;3556;53.500;10.176;2024-03-23T09:01:37;17.03;;;3.60;;
7029;SDS011;3556;53.500;10.176;2024-03-23T09:04:03;11.07;;;3.10;;
7029;SDS011;3556;53.500;10.176;2024-03-23T09:06:29;22.70;;;3.83;;
7029;SDS011;3556;53.500;10.176;2024-03-23T09:08:55;16.87;;;3.00;;
7029;SDS011;3556;53.500;10.176;2024-03-23T09:11:20;18.60;;;3.47;;
7029;SDS011;3556;53.500;10.176;2024-03-23T09:13:46;23.90;;;3.57;;
7029;SDS011;3556;53.500;10.176;2024-03-23T09:16:12;14.33;;;3.23;;
7029;SDS011;3556;53.500;10.176;2024-03-23T09:18:37;17.90;;;3.33;;
7029;SDS011;3556;53.500;10.176;2024-03-23T09:21:03;16.57;;;3.33;;
7029;SDS011;3556;53.500;10.176;2024-03-23T09:23:35;20.67;;;3.90;;
7029;SDS011;3556;53.500;10.176;2024-03-23T09:26:04;14.37;;;3.37;;
7029;SDS011;3556;53.500;10.176;2024-03-23T09:28:32;14.87;;;3.30;;
7029;SDS011;3556;53.500;10.176;2024-03-23T09:33:30;12.67;;;3.10;;
7029;SDS011;3556;53.500;10.176;2024-03-23T09:35:56;13.70;;;3.00;;
7029;SDS011;3556;53.500;10.176;2024-03-23T09:38:21;20.23;;;3.87;;
7029;SDS011;3556;53.500;10.176;2024-03-23T09:40:48;9.87;;;2.60;;
7029;SDS011;3556;53.500;10.176;2024-03-23T09:43:18;20.93;;;3.30;;
7029;SDS011;3556;53.500;10.176;2024-03-23T09:45:44;16.80;;;2.80;;
7029;SDS011;3556;53.500;10.176;2024-03-23T09:48:11;8.10;;;2.60;;
7029;SDS011;3556;53.500;10.176;2024-03-23T09:50:38;12.53;;;2.27;;
7029;SDS011;3556;53.500;10.176;2024-03-23T09:53:04;15.53;;;2.77;;
7029;SDS011;3556;53.500;10.176;2024-03-23T09:55:33;13.53;;;2.90;;
7029;SDS011;3556;53.500;10.176;2024-03-23T09:58:00;12.10;;;2.87;;
7029;SDS011;3556;53.500;10.176;2024-03-23T10:00:26;10.50;;;2.47;;
7029;SDS011;3556;53.500;10.176;2024-03-23T10:02:55;11.53;;;2.23;;
7029;SDS011;3556;53.500;10.176;2024-03-23T10:05:21;18.40;;;2.47;;
7029;SDS011;3556;53.500;10.176;2024-03-23T10:07:52;8.30;;;2.30;;
7029;SDS011;3556;53.500;10.176;2024-03-23T10:10:18;18.43;;;2.00;;
7029;SDS011;3556;53.500;10.176;2024-03-23T10:12:47;10.03;;;1.90;;
7029;SDS011;3556;53.500;10.176;2024-03-23T10:15:20;14.63;;;2.70;;
7029;SDS011;3556;53.500;10.176;2024-03-23T10:17:47;8.63;;;2.10;;
7029;SDS011;3556;53.500;10.176;2024-03-23T10:20:13;14.10;;;2.50;;
7029;SDS011;3556;53.500;10.176;2024-03-23T10:22:45;18.43;;;2.80;;
7029;SDS011;3556;53.500;10.176;2024-03-23T10:25:11;8.90;;;2.03;;
7029;SDS011;3556;53.500;10.176;2024-03-23T10:27:38;8.30;;;2.10;;
7029;SDS011;3556;53.500;10.176;2024-03-23T10:30:08;17.70;;;2.40;;
7029;SDS011;3556;53.500;10.176;2024-03-23T10:32:39;9.63;;;2.27;;
7029;SDS011;3556;53.500;10.176;2024-03-23T10:35:15;11.33;;;2.67;;
7029;SDS011;3556;53.500;10.176;2024-03-23T10:37:44;12.70;;;2.90;;
7029;SDS011;3556;53.500;10.176;2024-03-23T10:40:11;11.80;;;2.47;;
7029;SDS011;3556;53.500;10.176;2024-03-23T10:42:38;8.07;;;2.23;;
7029;SDS011;3556;53.500;10.176;2024-03-23T10:45:05;8.83;;;2.30;;
7029;SDS011;3556;53.500;10.176;2024-03-23T10:47:32;11.73;;;2.23;;
7029;SDS011;3556;53.500;10.176;2024-03-23T10:49:59;7.10;;;2.00;;
7029;SDS011;3556;53.500;10.176;2024-03-23T10:52:24;10.43;;;2.37;;
7029;SDS011;3556;53.500;10.176;2024-03-23T10:54:50;13.93;;;2.83;;
7029;SDS011;3556;53.500;10.176;2024-03-23T10:57:30;7.13;;;1.87;;
7029;SDS011;3556;53.500;10.176;2024-03-23T11:00:02;7.57;;;1.77;;
7029;SDS011;3556;53.500;10.176;2024-03-23T11:02:29;8.53;;;1.87;;
7029;SDS011;3556;53.500;10.176;2024-03-23T11:04:54;13.43;;;1.90;;
7029;SDS011;3556;53.500;10.176;2024-03-23T11:09:49;9.87;;;1.50;;
7029;SDS011;3556;53.500;10.176;2024-03-23T11:14:52;6.93;;;1.77;;
7029;SDS011;3556;53.500;10.176;2024-03-23T11:17:29;10.43;;;2.13;;
7029;SDS011;3556;53.500;10.176;2024-03-23T11:19:56;8.40;;;2.20;;
7029;SDS011;3556;53.500;10.176;2024-03-23T11:27:43;2.80;;;1.20;;
7029;SDS011;3556;53.500;10.176;2024-03-23T11:30:13;4.73;;;1.20;;
7029;SDS011;3556;53.500;10.176;2024-03-23T11:32:44;6.40;;;1.70;;
7029;SDS011;3556;53.500;10.176;2024-03-23T11:35:33;3.50;;;1.27;;
7029;SDS011;3556;53.500;10.176;2024-03-23T11:38:05;4.50;;;1.67;;
7029;SDS011;3556;53.500;10.176;2024-03-23T11:40:36;7.97;;;1.30;;
7029;SDS011;3556;53.500;10.176;2024-03-23T11:43:12;6.20;;;1.67;;
7029;SDS011;3556;53.500;10.176;2024-03-23T11:45:44;12.97;;;2.40;;
7029;SDS011;3556;53.500;10.176;2024-03-23T11:48:20;12.60;;;1.93;;
7029;SDS011;3556;53.500;10.176;2024-03-23T11:50:48;9.77;;;1.67;;
7029;SDS011;3556;53.500;10.176;2024-03-23T11:58:17;5.10;;;1.20;;
7029;SDS011;3556;53.500;10.176;2024-03-23T12:00:55;8.40;;;1.50;;
7029;SDS011;3556;53.500;10.176;2024-03-23T12:03:22;6.00;;;1.70;;
7029;SDS011;3556;53.500;10.176;2024-03-23T12:05:52;5.67;;;1.47;;
7029;SDS011;3556;53.500;10.176;2024-03-23T12:08:29;8.03;;;1.20;;
7029;SDS011;3556;53.500;10.176;2024-03-23T12:11:11;2.27;;;1.00;;
7029;SDS011;3556;53.500;10.176;2024-03-23T12:13:38;1.80;;;0.80;;
7029;SDS011;3556;53.500;10.176;2024-03-23T12:18:39;3.00;;;1.10;;
7029;SDS011;3556;53.500;10.176;2024-03-23T12:21:06;5.60;;;1.30;;
7029;SDS011;3556;53.500;10.176;2024-03-23T12:23:33;6.63;;;1.70;;
7029;SDS011;3556;53.500;10.176;2024-03-23T12:25:59;3.73;;;1.60;;
7029;SDS011;3556;53.500;10.176;2024-03-23T12:28:25;6.83;;;1.30;;
7029;SDS011;3556;53.500;10.176;2024-03-23T12:30:50;4.73;;;1.53;;
7029;SDS011;3556;53.500;10.176;2024-03-23T12:33:17;3.67;;;1.37;;
7029;SDS011;3556;53.500;10.176;2024-03-23T12:35:43;4.30;;;1.30;;
7029;SDS011;3556;53.500;10.176;2024-03-23T12:38:09;2.27;;;1.17;;
7029;SDS011;3556;53.500;10.176;2024-03-23T12:40:34;8.30;;;3.33;;
7029;SDS011;3556;53.500;10.176;2024-03-23T12:43:00;4.53;;;1.70;;
7029;SDS011;3556;53.500;10.176;2024-03-23T12:45:26;2.83;;;0.73;;
7029;SDS011;3556;53.500;10.176;2024-03-23T12:47:51;3.83;;;0.93;;
7029;SDS011;3556;53.500;10.176;2024-03-23T12:50:19;1.70;;;0.73;;
7029;SDS011;3556;53.500;10.176;2024-03-23T12:52:45;6.03;;;0.97;;
7029;SDS011;3556;53.500;10.176;2024-03-23T12:55:10;2.83;;;1.00;;
7029;SDS011;3556;53.500;10.176;2024-03-23T12:57:36;4.43;;;1.33;;
7029;SDS011;3556;53.500;10.176;2024-03-23T13:00:02;2.30;;;0.83;;
7029;SDS011;3556;53.500;10.176;2024-03-23T13:02:29;3.57;;;0.70;;
7029;SDS011;3556;53.500;10.176;2024-03-23T13:04:55;3.07;;;0.70;;
7029;SDS011;3556;53.500;10.176;2024-03-23T13:07:21;1.40;;;0.63;;
7029;SDS011;3556;53.500;10.176;2024-03-23T13:09:51;2.70;;;0.80;;
7029;SDS011;3556;53.500;10.176;2024-03-23T13:12:17;1.37;;;0.80;;
7029;SDS011;3556;53.500;10.176;2024-03-23T13:14:44;1.87;;;0.80;;
7029;SDS011;3556;53.500;10.176;2024-03-23T13:17:10;1.93;;;1.00;;
7029;SDS011;3556;53.500;10.176;2024-03-23T13:19:36;3.70;;;1.13;;
7029;SDS011;3556;53.500;10.176;2024-03-23T13:22:02;3.47;;;1.63;;
7029;SDS011;3556;53.500;10.176;2024-03-23T13:24:28;5.17;;;1.47;;
7029;SDS011;3556;53.500;10.176;2024-03-23T13:26:54;4.47;;;1.40;;
7029;SDS011;3556;53.500;10.176;2024-03-23T13:29:21;3.83;;;1.60;;
7029;SDS011;3556;53.500;10.176;2024-03-23T13:31:48;3.97;;;1.50;;
7029;SDS011;3556;53.500;10.176;2024-03-23T13:34:14;3.73;;;1.20;;
7029;SDS011;3556;53.500;10.176;2024-03-23T13:36:43;2.80;;;1.50;;
7029;SDS011;3556;53.500;10.176;2024-03-23T13:39:10;2.63;;;1.00;;
7029;SDS011;3556;53.500;10.176;2024-03-23T13:41:39;2.90;;;1.00;;
7029;SDS011;3556;53.500;10.176;2024-03-23T13:44:09;3.00;;;1.00;;
7029;SDS011;3556;53.500;10.176;2024-03-23T13:46:36;8.83;;;1.10;;
7029;SDS011;3556;53.500;10.176;2024-03-23T13:49:02;7.60;;;1.00;;
7029;SDS011;3556;53.500;10.176;2024-03-23T13:51:28;5.87;;;1.43;;
7029;SDS011;3556;53.500;10.176;2024-03-23T13:53:54;2.87;;;1.30;;
7029;SDS011;3556;53.500;10.176;2024-03-23T13:56:21;2.70;;;1.10;;
7029;SDS011;3556;53.500;10.176;2024-03-23T13:58:47;2.03;;;1.10;;
7029;SDS011;3556;53.500;10.176;2024-03-23T14:01:16;2.30;;;1.00;;
7029;SDS011;3556;53.500;10.176;2024-03-23T14:03:43;6.77;;;1.13;;
7029;SDS011;3556;53.500;10.176;2024-03-23T14:06:09;4.93;;;1.23;;
7029;SDS011;3556;53.500;10.176;2024-03-23T14:08:35;1.30;;;0.70;;
7029;SDS011;3556;53.500;10.176;2024-03-23T14:11:04;3.40;;;0.80;;
7029;SDS011;3556;53.500;10.176;2024-03-23T14:13:30;4.23;;;1.20;;
7029;SDS011;3556;53.500;10.176;2024-03-23T14:15:56;4.80;;;1.50;;
7029;SDS011;3556;53.500;10.176;2024-03-23T14:18:22;2.13;;;0.80;;
7029;SDS011;3556;53.500;10.176;2024-03-23T14:20:48;4.80;;;1.20;;
7029;SDS011;3556;53.500;10.176;2024-03-23T14:23:15;1.47;;;0.93;;
7029;SDS011;3556;53.500;10.176;2024-03-23T14:25:41;6.33;;;1.10;;
7029;SDS011;3556;53.500;10.176;2024-03-23T14:28:06;2.30;;;0.73;;
7029;SDS011;3556;53.500;10.176;2024-03-23T14:30:38;4.90;;;1.40;;
7029;SDS011;3556;53.500;10.176;2024-03-23T14:33:04;2.60;;;1.00;;
7029;SDS011;3556;53.500;10.176;2024-03-23T14:35:30;3.63;;;0.90;;
7029;SDS011;3556;53.500;10.176;2024-03-23T14:37:56;3.10;;;0.90;;
7029;SDS011;3556;53.500;10.176;2024-03-23T14:40:21;6.47;;;1.33;;
7029;SDS011;3556;53.500;10.176;2024-03-23T14:42:47;5.63;;;1.10;;
7029;SDS011;3556;53.500;10.176;2024-03-23T14:45:13;3.37;;;1.03;;
7029;SDS011;3556;53.500;10.176;2024-03-23T14:47:40;1.87;;;0.97;;
7029;SDS011;3556;53.500;10.176;2024-03-23T14:50:07;4.40;;;1.00;;
7029;SDS011;3556;53.500;10.176;2024-03-23T14:52:33;2.97;;;0.80;;
7029;SDS011;3556;53.500;10.176;2024-03-23T14:54:59;4.93;;;1.33;;
7029;SDS011;3556;53.500;10.176;2024-03-23T14:57:24;5.03;;;1.10;;
7029;SDS011;3556;53.500;10.176;2024-03-23T14:59:50;2.13;;;1.00;;
7029;SDS011;3556;53.500;10.176;2024-03-23T15:02:17;2.60;;;1.00;;
7029;SDS011;3556;53.500;10.176;2024-03-23T15:04:42;4.07;;;1.57;;
7029;SDS011;3556;53.500;10.176;2024-03-23T15:07:08;3.80;;;1.00;;
7029;SDS011;3556;53.500;10.176;2024-03-23T15:09:33;3.70;;;1.23;;
7029;SDS011;3556;53.500;10.176;2024-03-23T15:11:59;6.37;;;1.27;;
7029;SDS011;3556;53.500;10.176;2024-03-23T15:14:25;6.63;;;1.43;;
7029;SDS011;3556;53.500;10.176;2024-03-23T15:16:50;7.70;;;1.33;;
7029;SDS011;3556;53.500;10.176;2024-03-23T15:19:17;7.77;;;1.60;;
7029;SDS011;3556;53.500;10.176;2024-03-23T15:21:43;4.93;;;1.60;;
7029;SDS011;3556;53.500;10.176;2024-03-23T15:24:09;4.07;;;1.73;;
7029;SDS011;3556;53.500;10.176;2024-03-23T15:26:36;7.97;;;2.10;;
7029;SDS011;3556;53.500;10.176;2024-03-23T15:29:05;5.53;;;1.60;;
7029;SDS011;3556;53.500;10.176;2024-03-23T15:31:40;4.13;;;1.33;;
7029;SDS011;3556;53.500;10.176;2024-03-23T15:34:05;3.23;;;1.00;;
7029;SDS011;3556;53.500;10.176;2024-03-23T15:36:34;3.47;;;1.00;;
7029;SDS011;3556;53.500;10.176;2024-03-23T15:39:00;4.67;;;0.80;;
7029;SDS011;3556;53.500;10.176;2024-03-23T15:41:26;5.20;;;1.10;;
7029;SDS011;3556;53.500;10.176;2024-03-23T15:43:51;1.77;;;0.80;;
7029;SDS011;3556;53.500;10.176;2024-03-23T15:46:17;1.83;;;0.90;;
7029;SDS011;3556;53.500;10.176;2024-03-23T15:48:44;1.10;;;0.73;;
7029;SDS011;3556;53.500;10.176;2024-03-23T15:51:11;2.60;;;0.93;;
7029;SDS011;3556;53.500;10.176;2024-03-23T15:53:37;3.07;;;1.10;;
7029;SDS011;3556;53.500;10.176;2024-03-23T15:56:03;4.30;;;0.70;;
7029;SDS011;3556;53.500;10.176;2024-03-23T15:58:30;1.87;;;0.90;;
7029;SDS011;3556;53.500;10.176;2024-03-23T16:01:03;1.60;;;0.60;;
7029;SDS011;3556;53.500;10.176;2024-03-23T16:03:30;3.00;;;0.80;;
7029;SDS011;3556;53.500;10.176;2024-03-23T16:05:58;3.87;;;0.80;;